Time;durP1;ratioP1;P1;durP2;ratioP2;P2;SDS_P1;SDS_P2;PMS_P1;PMS_P2;Temp;Humidity;BMP_temperature;BMP_pressure;BME280_temperature;BME280_humidity;BME280_pressure;Samples;Min_cycle;Max_cycle;Signal;HPM_P1;HPM_P2
2022/12/29 00:01:26;;;;;;;2.53;0.98;;;;;;;11.80;100.00;99981.09;5113341;29;20055;-74
2022/12/29 00:03:57;;;;;;;3.08;1.15;;;;;;;11.77;100.00;99978.78;5109896;29;20035;-74
2022/12/29 00:06:29;;;;;;;1.48;0.73;;;;;;;11.83;100.00;99995.72;5110931;29;20052;-74
2022/12/29 00:09:01;;;;;;;1.20;0.80;;;;;;;11.79;100.00;99987.34;5107642;29;20123;-74
2022/12/29 00:11:32;;;;;;;2.58;0.70;;;;;;;11.85;100.00;99973.59;5108451;29;20063;-74
2022/12/29 00:16:54;;;;;;;2.63;0.70;;;;;;;11.69;100.00;99965.66;5108716;29;20040;-74
2022/12/29 00:36:34;;;;;;;1.23;0.60;;;;;;;11.39;100.00;99957.34;5107723;29;20486;-73
2022/12/29 00:44:58;;;;;;;1.70;0.80;;;;;;;11.28;100.00;99927.94;5110849;29;20401;-73
2022/12/29 00:47:29;;;;;;;2.85;1.00;;;;;;;11.24;100.00;99929.25;5103139;29;20028;-73
2022/12/29 00:50:01;;;;;;;2.08;1.00;;;;;;;11.26;100.00;99935.97;5106313;29;20046;-74
2022/12/29 00:52:32;;;;;;;2.08;1.20;;;;;;;11.26;100.00;99929.91;5107455;29;20063;-74
2022/12/29 00:55:03;;;;;;;2.13;1.20;;;;;;;11.23;100.00;99922.34;5108724;29;20036;-73
2022/12/29 00:57:35;;;;;;;1.80;1.20;;;;;;;11.25;100.00;99918.63;5107659;29;20036;-73
2022/12/29 01:00:06;;;;;;;2.40;1.27;;;;;;;11.26;100.00;99930.72;5090817;29;20136;-73
2022/12/29 01:02:38;;;;;;;2.10;1.30;;;;;;;11.26;100.00;99917.63;5103298;29;20540;-73
2022/12/29 01:05:09;;;;;;;2.10;1.60;;;;;;;11.29;100.00;99901.59;5106803;29;20103;-73
2022/12/29 01:07:40;;;;;;;2.72;1.83;;;;;;;11.31;100.00;99907.47;5104403;29;20048;-74
2022/12/29 01:10:12;;;;;;;5.18;1.60;;;;;;;11.29;100.00;99893.72;5096627;29;20024;-73
2022/12/29 01:12:44;;;;;;;3.00;1.65;;;;;;;11.31;100.00;99893.53;5107823;29;20056;-73
2022/12/29 01:15:16;;;;;;;2.97;1.70;;;;;;;11.31;100.00;99896.16;5108679;29;20115;-74
2022/12/29 01:17:47;;;;;;;2.55;1.35;;;;;;;11.31;100.00;99902.22;5108796;29;20036;-74
2022/12/29 01:20:18;;;;;;;2.05;1.38;;;;;;;11.34;100.00;99891.44;5107706;29;20056;-74
2022/12/29 01:22:50;;;;;;;2.75;1.48;;;;;;;11.39;100.00;99889.16;5088505;29;20478;-74
2022/12/29 01:25:21;;;;;;;2.90;1.10;;;;;;;11.35;100.00;99882.56;5108846;29;20091;-74
2022/12/29 01:27:52;;;;;;;1.90;1.02;;;;;;;11.43;100.00;99892.28;5105621;29;20466;-74
2022/12/29 01:30:23;;;;;;;2.20;1.20;;;;;;;11.40;100.00;99879.47;5091404;29;20481;-74
2022/12/29 01:32:55;;;;;;;2.65;1.35;;;;;;;11.40;100.00;99874.22;5108091;29;20486;-73
2022/12/29 01:35:27;;;;;;;5.25;1.20;;;;;;;11.44;100.00;99889.50;5105195;29;20114;-74
2022/12/29 01:37:58;;;;;;;1.73;0.77;;;;;;;11.45;100.00;99882.47;5106892;29;20062;-74
2022/12/29 01:40:29;;;;;;;2.30;1.08;;;;;;;11.46;100.00;99873.59;5109031;29;20032;-74
2022/12/29 01:43:01;;;;;;;1.98;0.80;;;;;;;11.53;100.00;99879.03;5110488;29;20028;-74
2022/12/29 01:45:32;;;;;;;2.92;1.10;;;;;;;11.52;100.00;99872.16;5110522;29;20501;-74
2022/12/29 01:48:08;;;;;;;3.42;0.93;;;;;;;11.57;100.00;99893.47;5106893;29;20512;-74
2022/12/29 01:50:45;;;;;;;3.00;1.00;;;;;;;11.65;100.00;99890.88;5106824;29;20430;-73
2022/12/29 01:53:24;;;;;;;3.42;1.15;;;;;;;11.71;100.00;99890.25;5107129;29;20398;-74
2022/12/29 01:56:01;;;;;;;2.05;0.73;;;;;;;11.72;100.00;99888.44;5108423;29;20408;-74
2022/12/29 01:58:37;;;;;;;4.28;1.20;;;;;;;11.74;100.00;99879.41;5107547;29;20036;-74
2022/12/29 02:01:09;;;;;;;3.38;1.00;;;;;;;11.69;100.00;99889.56;5107028;29;20031;-74
2022/12/29 02:03:41;;;;;;;2.72;0.90;;;;;;;11.68;100.00;99874.81;5098656;29;20114;-74
2022/12/29 02:06:27;;;;;;;2.38;0.90;;;;;;;11.82;100.00;99884.69;5108214;29;20489;-74
2022/12/29 02:08:58;;;;;;;3.08;0.90;;;;;;;11.72;100.00;99873.50;5104714;29;20051;-74
2022/12/29 02:11:31;;;;;;;2.45;1.00;;;;;;;11.78;100.00;99882.53;5107299;29;20091;-74
2022/12/29 02:14:08;;;;;;;3.87;0.97;;;;;;;11.82;100.00;99883.84;5106621;29;20032;-74
2022/12/29 02:16:58;;;;;;;3.72;0.93;;;;;;;11.79;100.00;99873.69;5108383;29;20490;-74
2022/12/29 02:20:07;;;;;;;4.03;0.90;;;;;;;12.01;100.00;99869.63;5109376;29;20095;-74
2022/12/29 02:23:06;;;;;;;3.35;1.00;;;;;;;12.04;100.00;99885.06;5105907;29;20032;-74
2022/12/29 02:25:55;;;;;;;2.22;0.88;;;;;;;12.01;100.00;99873.09;5109334;29;20040;-74
2022/12/29 02:29:00;;;;;;;4.43;1.67;;;;;;;12.01;100.00;99877.50;5108968;29;20095;-73
2022/12/29 02:31:46;;;;;;;3.33;1.10;;;;;;;11.98;100.00;99862.09;5105984;29;20054;-74
2022/12/29 02:34:47;;;;;;;2.58;0.80;;;;;;;12.08;100.00;99850.44;5107561;29;20035;-73
2022/12/29 02:37:24;;;;;;;2.60;1.00;;;;;;;11.83;100.00;99854.84;5108257;29;20034;-74
2022/12/29 02:40:05;;;;;;;3.15;0.90;;;;;;;11.89;100.00;99863.88;5107284;29;20036;-74
2022/12/29 02:42:50;;;;;;;2.88;0.95;;;;;;;11.91;100.00;99862.72;5109621;29;20064;-73
2022/12/29 02:45:30;;;;;;;4.07;1.00;;;;;;;11.88;100.00;99857.00;5109891;29;20032;-74
2022/12/29 02:48:01;;;;;;;4.20;0.77;;;;;;;11.81;100.00;99866.47;5108122;29;20052;-74
2022/12/29 02:50:36;;;;;;;3.90;1.00;;;;;;;11.82;100.00;99858.44;5107275;29;20032;-74
2022/12/29 02:53:12;;;;;;;1.70;0.73;;;;;;;11.83;100.00;99865.34;5107064;29;20283;-74
2022/12/29 02:55:51;;;;;;;4.10;0.88;;;;;;;11.90;100.00;99855.03;5106976;29;20033;-73
2022/12/29 02:58:23;;;;;;;2.85;0.90;;;;;;;11.78;100.00;99843.16;5106033;29;20040;-74
2022/12/29 03:01:22;;;;;;;5.80;0.90;;;;;;;11.89;100.00;99843.72;5108514;29;20031;-74
2022/12/29 03:04:39;;;;;;;4.68;1.33;;;;;;;11.89;100.00;99835.84;5108094;29;20442;-74
2022/12/29 03:07:28;;;;;;;1.67;0.80;;;;;;;11.87;100.00;99840.44;5071423;29;20056;-74
2022/12/29 03:10:22;;;;;;;1.65;0.70;;;;;;;11.85;100.00;99847.63;5088707;29;20029;-74
2022/12/29 03:16:03;;;;;;;2.22;0.80;;;;;;;11.79;100.00;99837.75;5092213;29;20045;-74
2022/12/29 03:18:40;;;;;;;2.28;0.80;;;;;;;11.74;100.00;99839.22;5101725;23;20056;-79
2022/12/29 03:24:30;;;;;;;3.17;1.10;;;;;;;11.75;100.00;99836.44;5110177;29;20052;-80
2022/12/29 03:27:06;;;;;;;2.30;1.00;;;;;;;11.74;100.00;99842.66;5092050;29;20118;-78
2022/12/29 03:29:44;;;;;;;2.35;0.77;;;;;;;11.77;100.00;99841.53;5108184;29;20398;-78
2022/12/29 03:32:16;;;;;;;4.15;1.35;;;;;;;11.65;100.00;99827.91;5113171;29;20031;-78
2022/12/29 03:34:49;;;;;;;2.60;0.70;;;;;;;11.68;100.00;99832.84;5114049;29;20032;-78
2022/12/29 03:37:26;;;;;;;3.88;1.00;;;;;;;11.71;100.00;99829.88;5111445;29;20028;-78
2022/12/29 03:39:57;;;;;;;4.82;0.88;;;;;;;11.61;100.00;99834.47;5110122;29;20072;-79
2022/12/29 03:42:32;;;;;;;4.45;1.42;;;;;;;11.60;100.00;99844.13;5113020;29;20032;-78
2022/12/29 03:45:05;;;;;;;3.97;0.90;;;;;;;11.49;100.00;99836.56;5112029;29;20028;-78
2022/12/29 03:47:36;;;;;;;2.80;0.93;;;;;;;11.44;100.00;99837.06;5109669;29;20041;-78
2022/12/29 03:50:08;;;;;;;2.47;0.85;;;;;;;11.37;100.00;99830.81;5110581;29;20028;-78
2022/12/29 03:52:39;;;;;;;1.70;0.60;;;;;;;11.40;100.00;99850.63;5111860;29;20032;-78
2022/12/29 03:55:11;;;;;;;3.63;1.05;;;;;;;11.36;100.00;99831.75;5107256;29;20046;-78
2022/12/29 03:57:42;;;;;;;6.32;1.20;;;;;;;11.40;100.00;99850.63;5108378;29;20036;-78
2022/12/29 04:00:14;;;;;;;4.60;1.33;;;;;;;11.36;100.00;99865.84;5108179;29;20386;-78
2022/12/29 04:02:45;;;;;;;4.47;1.10;;;;;;;11.37;100.00;99871.94;5111827;29;20063;-78
2022/12/29 04:05:16;;;;;;;3.92;0.90;;;;;;;11.34;100.00;99852.09;5110658;29;20066;-78
2022/12/29 04:07:48;;;;;;;4.22;1.10;;;;;;;11.20;100.00;99843.03;5110251;29;20106;-78
2022/12/29 04:10:19;;;;;;;4.32;1.13;;;;;;;11.21;100.00;99825.50;5111457;29;20549;-78
2022/12/29 04:12:50;;;;;;;3.58;0.80;;;;;;;11.23;100.00;99847.16;5110576;29;20032;-78
2022/12/29 04:15:23;;;;;;;3.10;1.08;;;;;;;11.09;100.00;99866.91;5109164;29;20040;-78
2022/12/29 04:17:55;;;;;;;5.80;1.67;;;;;;;10.97;100.00;99860.31;5111019;29;20028;-78
2022/12/29 04:23:16;;;;;;;6.38;1.10;;;;;;;10.98;100.00;99868.97;5109041;29;20057;-78
2022/12/29 04:25:47;;;;;;;3.05;0.93;;;;;;;10.99;100.00;99878.50;5111560;29;20057;-78
2022/12/29 04:28:19;;;;;;;4.57;1.20;;;;;;;10.91;100.00;99871.41;5108633;29;20060;-78
2022/12/29 04:30:50;;;;;;;2.97;0.80;;;;;;;10.86;100.00;99881.53;5109435;29;20035;-78
2022/12/29 04:33:22;;;;;;;6.38;1.35;;;;;;;10.84;100.00;99871.22;5111061;29;20028;-78
2022/12/29 04:35:54;;;;;;;5.53;1.65;;;;;;;10.83;100.00;99877.41;5090882;29;20027;-78
2022/12/29 04:38:25;;;;;;;6.07;1.33;;;;;;;10.78;100.00;99886.75;5090964;29;20478;-78
2022/12/29 04:41:00;;;;;;;3.15;1.30;;;;;;;10.86;100.00;99882.34;5111506;29;20103;-78
2022/12/29 04:43:31;;;;;;;6.90;1.17;;;;;;;10.78;100.00;99894.59;5093752;29;20028;-78
2022/12/29 04:46:02;;;;;;;3.38;1.02;;;;;;;10.77;100.00;99885.91;5109859;29;20039;-78
2022/12/29 04:48:33;;;;;;;4.60;1.25;;;;;;;10.76;100.00;99892.16;5110733;29;20056;-78
2022/12/29 04:51:05;;;;;;;5.68;1.30;;;;;;;10.74;100.00;99909.81;5095461;29;20024;-79
2022/12/29 04:53:36;;;;;;;5.50;1.40;;;;;;;10.70;100.00;99903.22;5107934;29;20529;-78
2022/12/29 04:56:08;;;;;;;4.40;1.33;;;;;;;10.68;100.00;99907.78;5110927;29;20020;-79
2022/12/29 04:58:40;;;;;;;5.55;1.33;;;;;;;10.73;100.00;99925.69;5112598;29;20036;-79
2022/12/29 05:01:11;;;;;;;6.97;1.65;;;;;;;10.68;100.00;99911.25;5093919;29;20528;-78
2022/12/29 05:03:42;;;;;;;5.60;1.40;;;;;;;10.70;100.00;99909.28;5110243;29;20031;-78
2022/12/29 05:06:14;;;;;;;4.20;1.02;;;;;;;10.72;100.00;99917.00;5110953;29;20457;-78
2022/12/29 05:08:45;;;;;;;3.28;1.15;;;;;;;10.68;100.00;99921.72;5111829;29;20032;-79
2022/12/29 05:11:16;;;;;;;6.53;1.70;;;;;;;10.62;100.00;99932.00;5108368;29;20115;-78
2022/12/29 05:13:47;;;;;;;5.03;1.50;;;;;;;10.58;100.00;99933.28;5111595;29;20500;-78
2022/12/29 05:16:19;;;;;;;10.40;2.33;;;;;;;10.60;100.00;99937.34;5110528;29;20720;-78
2022/12/29 05:18:50;;;;;;;5.72;1.63;;;;;;;10.64;100.00;99936.06;5108003;29;20049;-78
2022/12/29 05:21:21;;;;;;;6.85;1.40;;;;;;;10.64;100.00;99956.22;5112101;29;20029;-78
2022/12/29 05:23:53;;;;;;;4.47;1.20;;;;;;;10.75;100.00;99944.69;5111953;29;20520;-78
2022/12/29 05:26:24;;;;;;;5.05;1.20;;;;;;;10.69;100.00;99939.09;5110932;29;20060;-78
2022/12/29 05:28:56;;;;;;;5.90;1.20;;;;;;;10.74;100.00;99937.81;5107535;29;20692;-78
2022/12/29 05:31:27;;;;;;;6.75;1.30;;;;;;;10.75;100.00;99953.34;5111838;29;20056;-78
2022/12/29 05:33:58;;;;;;;4.45;1.20;;;;;;;10.82;100.00;99946.53;5106840;29;20031;-78
2022/12/29 05:36:30;;;;;;;4.32;1.02;;;;;;;10.78;100.00;99949.63;5110927;29;20020;-78
2022/12/29 05:39:01;;;;;;;6.82;1.65;;;;;;;10.81;100.00;99942.28;5113047;29;20062;-78
2022/12/29 05:41:34;;;;;;;5.63;1.35;;;;;;;10.77;100.00;99948.78;5112243;29;20064;-78
2022/12/29 05:44:05;;;;;;;5.25;1.15;;;;;;;10.81;100.00;99955.38;5110004;29;20496;-78
2022/12/29 05:46:37;;;;;;;7.13;1.42;;;;;;;10.78;100.00;99957.47;5110857;29;20020;-78
2022/12/29 05:49:08;;;;;;;4.53;1.08;;;;;;;10.90;100.00;99971.97;5112239;29;20032;-79
2022/12/29 05:51:39;;;;;;;4.97;1.10;;;;;;;10.87;100.00;99964.41;5108951;29;20513;-78
2022/12/29 05:54:10;;;;;;;5.00;1.50;;;;;;;10.94;100.00;99978.53;5092416;29;20642;-78
2022/12/29 05:56:42;;;;;;;2.45;0.82;;;;;;;10.96;100.00;99974.78;5110201;29;20041;-79
2022/12/29 05:59:13;;;;;;;7.10;1.27;;;;;;;10.89;100.00;99975.56;5091102;29;20031;-78
2022/12/29 06:01:44;;;;;;;5.13;1.50;;;;;;;10.98;100.00;99973.81;5106972;29;20036;-78
2022/12/29 06:04:15;;;;;;;4.88;1.05;;;;;;;11.01;100.00;99973.50;5107853;29;20032;-79
2022/12/29 06:06:47;;;;;;;4.25;1.13;;;;;;;11.00;100.00;99974.50;5110140;29;20035;-78
2022/12/29 06:09:18;;;;;;;5.63;1.20;;;;;;;11.06;100.00;99986.97;5109656;29;20190;-78
2022/12/29 06:11:49;;;;;;;5.15;1.13;;;;;;;11.04;100.00;99973.22;5111196;29;20056;-78
2022/12/29 06:14:20;;;;;;;6.88;1.13;;;;;;;11.03;100.00;99982.88;5109650;29;20059;-78
2022/12/29 06:16:52;;;;;;;2.20;0.80;;;;;;;11.08;100.00;99987.66;5110162;29;20065;-78
2022/12/29 06:19:23;;;;;;;4.93;1.08;;;;;;;11.01;100.00;99979.56;5107826;29;20052;-78
2022/12/29 06:21:54;;;;;;;3.67;0.90;;;;;;;11.04;100.00;99979.28;5106024;29;20033;-78
2022/12/29 06:24:26;;;;;;;3.58;1.15;;;;;;;11.09;100.00;99976.19;5105515;29;20119;-78
2022/12/29 06:26:57;;;;;;;4.20;1.27;;;;;;;11.10;100.00;99977.81;5103286;29;20032;-78
2022/12/29 06:29:28;;;;;;;4.18;1.05;;;;;;;11.12;100.00;99981.13;5108719;29;20099;-78
2022/12/29 06:32:00;;;;;;;7.30;1.52;;;;;;;11.04;100.00;99968.78;5106701;29;20052;-78
2022/12/29 06:34:31;;;;;;;6.45;1.80;;;;;;;11.09;100.00;99971.75;5106974;29;20482;-78
2022/12/29 06:37:03;;;;;;;7.28;1.80;;;;;;;10.92;100.00;99952.50;5108244;29;20094;-78
2022/12/29 06:39:34;;;;;;;6.65;1.25;;;;;;;11.02;100.00;99959.41;5105086;29;20020;-78
2022/12/29 06:42:05;;;;;;;6.18;1.20;;;;;;;10.96;100.00;99974.78;5102925;29;20028;-78
2022/12/29 06:44:37;;;;;;;6.13;1.33;;;;;;;10.92;100.00;99960.34;5109514;29;20164;-78
2022/12/29 06:47:08;;;;;;;5.40;1.85;;;;;;;10.95;100.00;99957.44;5112639;29;20035;-78
2022/12/29 06:49:39;;;;;;;7.55;1.42;;;;;;;10.89;100.00;99981.63;5113734;29;20024;-78
2022/12/29 06:52:11;;;;;;;8.15;1.90;;;;;;;11.02;100.00;99968.09;5112709;29;20035;-78
2022/12/29 06:54:42;;;;;;;6.25;1.45;;;;;;;10.93;100.00;99961.19;5095011;29;20028;-77
2022/12/29 06:57:13;;;;;;;7.50;1.63;;;;;;;11.06;100.00;99977.34;5113145;29;20044;-78
2022/12/29 06:59:45;;;;;;;6.70;1.90;;;;;;;11.01;100.00;99974.34;5106091;29;20498;-78
2022/12/29 07:02:18;;;;;;;6.85;1.40;;;;;;;11.02;100.00;99981.22;5108344;29;20496;-78
2022/12/29 07:04:50;;;;;;;8.30;2.00;;;;;;;10.93;100.00;99964.63;5112901;29;20415;-78
2022/12/29 07:07:22;;;;;;;5.55;1.38;;;;;;;11.05;100.00;99973.03;5109791;29;20040;-78
2022/12/29 07:09:53;;;;;;;10.05;1.70;;;;;;;11.11;100.00;99969.00;5081983;29;20078;-78
2022/12/29 07:12:24;;;;;;;7.95;2.17;;;;;;;11.03;100.00;99985.50;5096203;29;20032;-78
2022/12/29 07:14:55;;;;;;;7.50;1.70;;;;;;;11.09;100.00;99997.16;5107465;29;20336;-77
2022/12/29 07:17:27;;;;;;;7.75;1.40;;;;;;;11.13;100.00;100009.78;5100599;29;20056;-78
2022/12/29 07:19:58;;;;;;;8.18;2.00;;;;;;;11.21;100.00;100003.78;5111265;29;20044;-78
2022/12/29 07:22:29;;;;;;;8.43;2.10;;;;;;;10.94;100.00;99983.78;5108677;29;20441;-78
2022/12/29 07:25:02;;;;;;;9.57;1.90;;;;;;;10.73;100.00;99965.81;5110138;29;20047;-78
2022/12/29 07:27:33;;;;;;;5.75;1.50;;;;;;;11.14;100.00;100032.44;5109239;29;20122;-78
2022/12/29 07:30:05;;;;;;;6.13;2.03;;;;;;;11.07;100.00;100028.78;5109220;29;20561;-78
2022/12/29 07:32:36;;;;;;;9.02;1.77;;;;;;;11.10;100.00;100033.72;5108132;29;20446;-78
2022/12/29 07:35:07;;;;;;;10.23;2.35;;;;;;;11.11;100.00;100045.03;5112383;29;20110;-78
2022/12/29 07:37:39;;;;;;;7.68;1.58;;;;;;;11.07;100.00;100034.00;5113404;29;20091;-78
2022/12/29 07:40:11;;;;;;;8.52;1.80;;;;;;;11.11;100.00;100035.34;5110081;29;20402;-78
2022/12/29 07:42:42;;;;;;;7.93;2.13;;;;;;;11.09;100.00;100049.56;5106807;29;20036;-78
2022/12/29 07:45:13;;;;;;;7.47;1.80;;;;;;;11.08;100.00;100042.69;5104478;29;20036;-78
2022/12/29 07:47:48;;;;;;;7.03;1.63;;;;;;;11.14;100.00;100040.28;5094928;29;20083;-78
2022/12/29 07:50:20;;;;;;;11.88;2.72;;;;;;;11.06;100.00;100044.63;5111073;29;20034;-78
2022/12/29 07:52:51;;;;;;;10.00;2.15;;;;;;;11.10;100.00;100027.63;5111309;29;20024;-78
2022/12/29 07:55:22;;;;;;;9.77;2.00;;;;;;;11.11;100.00;100035.34;5112222;29;20084;-78
2022/12/29 07:57:54;;;;;;;8.88;2.28;;;;;;;11.10;100.00;100025.00;5111274;29;20118;-78
2022/12/29 08:00:26;;;;;;;9.20;2.10;;;;;;;11.07;100.00;100027.94;5111014;29;20040;-78
2022/12/29 08:02:57;;;;;;;7.70;1.80;;;;;;;11.13;100.00;100040.44;5093006;29;20075;-78
2022/12/29 08:05:30;;;;;;;8.82;2.00;;;;;;;11.09;100.00;100049.56;5110460;29;20401;-79
2022/12/29 08:08:02;;;;;;;7.57;1.88;;;;;;;11.12;100.00;100050.09;5103974;29;20032;-79
2022/12/29 08:10:33;;;;;;;10.23;2.65;;;;;;;11.15;100.00;100048.97;5111356;29;20032;-78
2022/12/29 08:13:04;;;;;;;10.13;2.28;;;;;;;11.12;100.00;100051.91;5111658;29;20032;-78
2022/12/29 08:15:37;;;;;;;7.63;2.15;;;;;;;11.14;100.00;100048.16;5112890;29;20035;-78
2022/12/29 08:18:08;;;;;;;8.50;1.70;;;;;;;11.13;100.00;100053.53;5110694;29;20463;-78
2022/12/29 08:20:39;;;;;;;9.27;2.60;;;;;;;11.10;100.00;100040.72;5111853;29;20123;-78
2022/12/29 08:23:11;;;;;;;8.38;2.17;;;;;;;11.23;100.00;100029.84;5109807;29;20037;-79
2022/12/29 08:25:42;;;;;;;10.05;2.30;;;;;;;11.16;100.00;100067.16;5110605;29;20020;-78
2022/12/29 08:28:13;;;;;;;7.30;1.80;;;;;;;11.21;100.00;100061.44;5109604;29;20180;-79
2022/12/29 08:30:44;;;;;;;8.55;2.00;;;;;;;11.23;100.00;100067.38;5106290;29;20493;-79
2022/12/29 08:33:16;;;;;;;6.18;1.67;;;;;;;11.21;100.00;100048.34;5108433;29;20501;-78
2022/12/29 08:35:47;;;;;;;10.38;2.03;;;;;;;11.21;100.00;100071.94;5109284;29;20458;-78
2022/12/29 08:38:18;;;;;;;8.88;1.73;;;;;;;11.23;100.00;100063.94;5109752;29;20389;-78
2022/12/29 08:40:51;;;;;;;8.85;2.00;;;;;;;11.26;100.00;100056.59;5109050;29;20020;-78
2022/12/29 08:43:23;;;;;;;7.32;1.85;;;;;;;11.27;100.00;100065.28;5109206;29;20410;-78
2022/12/29 08:45:55;;;;;;;8.07;1.73;;;;;;;11.32;100.00;100047.28;5105633;29;20060;-79
2022/12/29 08:48:27;;;;;;;7.53;1.50;;;;;;;11.33;100.00;100054.19;5110246;29;20032;-78
2022/12/29 08:50:58;;;;;;;9.27;2.33;;;;;;;11.32;100.00;100047.28;5105279;29;20028;-78
2022/12/29 08:53:29;;;;;;;8.80;2.00;;;;;;;11.40;100.00;100066.53;5108882;29;20485;-78
2022/12/29 08:56:01;;;;;;;4.88;1.77;;;;;;;11.40;100.00;100053.41;5112209;29;20071;-78
2022/12/29 08:58:32;;;;;;;9.95;2.30;;;;;;;11.39;100.00;100062.22;5110725;29;20131;-78
2022/12/29 09:01:04;;;;;;;5.70;1.80;;;;;;;11.38;100.00;100055.34;5109249;29;20020;-78
2022/12/29 09:03:35;;;;;;;9.10;1.88;;;;;;;11.38;100.00;100057.97;5111063;29;20059;-78
2022/12/29 09:06:06;;;;;;;7.45;1.92;;;;;;;11.33;100.00;100075.97;5108626;29;20481;-78
2022/12/29 09:08:38;;;;;;;9.55;1.73;;;;;;;11.40;100.00;100063.06;5109680;29;20038;-78
2022/12/29 09:11:12;;;;;;;7.55;1.92;;;;;;;11.36;100.00;100065.16;5107932;29;20037;-78
2022/12/29 09:13:44;;;;;;;7.65;2.00;;;;;;;11.42;100.00;100088.16;5109317;29;20053;-78
2022/12/29 09:16:17;;;;;;;9.45;2.20;;;;;;;11.30;100.00;100088.56;5110334;29;20115;-78
2022/12/29 09:18:48;;;;;;;12.43;1.90;;;;;;;11.30;100.00;100080.72;5107967;29;20052;-78
2022/12/29 09:21:19;;;;;;;8.65;1.90;;;;;;;11.24;100.00;100095.25;5104357;29;20118;-78
2022/12/29 09:23:51;;;;;;;7.05;1.90;;;;;;;11.23;100.00;100085.72;5105890;29;20024;-78
2022/12/29 09:26:22;;;;;;;6.18;1.92;;;;;;;11.02;100.00;100095.72;5109336;29;20040;-78
2022/12/29 09:28:53;;;;;;;9.57;2.15;;;;;;;11.09;100.00;100107.25;5106174;29;20067;-78
2022/12/29 09:31:25;;;;;;;6.28;1.98;;;;;;;11.06;100.00;100105.78;5093615;29;20035;-78
2022/12/29 09:33:56;;;;;;;8.48;1.95;;;;;;;11.00;100.00;100106.38;5107889;29;20024;-78
2022/12/29 09:36:27;;;;;;;7.10;1.73;;;;;;;10.90;100.00;100105.59;5108730;29;20501;-78
2022/12/29 09:38:59;;;;;;;7.30;1.77;;;;;;;10.87;100.00;100111.16;5106269;29;20035;-78
2022/12/29 09:41:35;;;;;;;9.20;1.98;;;;;;;10.92;100.00;100107.13;5090112;29;20032;-77
2022/12/29 09:44:29;;;;;;;9.02;1.88;;;;;;;11.00;100.00;100108.97;5111273;29;20489;-78
2022/12/29 09:47:01;;;;;;;8.23;1.80;;;;;;;10.94;100.00;100141.03;5105854;29;20032;-78
2022/12/29 09:49:42;;;;;;;7.75;2.25;;;;;;;11.07;100.00;100130.19;5107266;29;20087;-78
2022/12/29 09:52:29;;;;;;;9.13;2.60;;;;;;;11.09;100.00;100136.91;5107542;29;20071;-78
2022/12/29 09:55:15;;;;;;;9.30;1.90;;;;;;;11.08;100.00;100143.13;5108431;29;20028;-78
2022/12/29 09:57:52;;;;;;;8.18;1.92;;;;;;;10.90;100.00;100155.41;5100246;29;20050;-78
2022/12/29 10:00:37;;;;;;;6.35;1.48;;;;;;;10.92;100.00;100151.66;5105224;29;20564;-78
2022/12/29 10:03:15;;;;;;;8.07;1.83;;;;;;;10.78;100.00;100148.75;5104713;29;20033;-78
2022/12/29 10:06:11;;;;;;;6.45;1.95;;;;;;;10.93;100.00;100170.84;5096604;29;20463;-78
2022/12/29 10:08:55;;;;;;;8.27;2.08;;;;;;;10.79;100.00;100174.78;5103692;29;20438;-78
2022/12/29 10:11:55;;;;;;;6.13;1.55;;;;;;;10.64;100.00;100194.59;5096309;29;20021;-78
2022/12/29 10:14:57;;;;;;;7.03;1.95;;;;;;;10.76;100.00;100203.91;5104347;29;20032;-78
2022/12/29 10:17:47;;;;;;;9.23;2.13;;;;;;;10.60;100.00;100201.09;5099694;29;20079;-78
2022/12/29 10:20:47;;;;;;;9.40;2.25;;;;;;;10.74;100.00;100210.25;5104505;29;20044;-78
2022/12/29 10:23:38;;;;;;;10.00;2.00;;;;;;;10.60;100.00;100217.63;5099415;29;20084;-77
2022/12/29 10:26:17;;;;;;;9.43;1.90;;;;;;;10.44;100.00;100215.63;5104668;29;20119;-78
2022/12/29 10:28:56;;;;;;;8.90;2.15;;;;;;;10.55;100.00;100209.41;5098970;29;20036;-78
2022/12/29 10:31:57;;;;;;;4.78;1.55;;;;;;;10.51;100.00;100215.06;5104030;29;20041;-78
2022/12/29 10:34:34;;;;;;;8.73;1.80;;;;;;;10.43;100.00;100215.78;5097720;29;20040;-78
2022/12/29 10:37:25;;;;;;;7.97;1.67;;;;;;;10.56;100.00;100237.22;5099067;29;20066;-78
2022/12/29 10:39:56;;;;;;;7.07;2.00;;;;;;;10.37;100.00;100230.28;5096505;29;20029;-78
2022/12/29 10:42:36;;;;;;;7.85;1.63;;;;;;;10.41;100.00;100244.72;5102404;29;20050;-78
2022/12/29 10:45:13;;;;;;;6.97;2.38;;;;;;;10.43;100.00;100244.59;5102349;29;20037;-78
2022/12/29 10:48:09;;;;;;;8.80;2.80;;;;;;;10.63;100.00;100254.03;5105113;29;20036;-78
2022/12/29 10:50:42;;;;;;;11.48;2.00;;;;;;;10.46;100.00;100258.25;5104293;29;20024;-78
2022/12/29 10:53:20;;;;;;;11.88;1.95;;;;;;;10.53;100.00;100262.88;5104575;29;20036;-78
2022/12/29 10:55:53;;;;;;;7.53;1.90;;;;;;;10.45;100.00;100263.59;5109061;29;20083;-78
2022/12/29 10:58:25;;;;;;;12.00;2.27;;;;;;;10.48;100.00;100264.13;5106343;29;20035;-78
2022/12/29 11:00:57;;;;;;;9.75;2.63;;;;;;;10.46;100.00;100267.88;5102887;29;20064;-79
2022/12/29 11:03:44;;;;;;;7.93;1.83;;;;;;;10.58;100.00;100260.69;5105574;29;20545;-78
2022/12/29 11:06:24;;;;;;;11.05;2.03;;;;;;;10.46;100.00;100271.34;5101047;29;20062;-78
2022/12/29 11:09:18;;;;;;;13.90;2.67;;;;;;;10.51;100.00;100273.50;5105897;29;20126;-78
2022/12/29 11:11:50;;;;;;;9.98;2.47;;;;;;;10.34;100.00;100284.72;5106366;29;20029;-78
2022/12/29 11:14:30;;;;;;;10.10;2.75;;;;;;;10.38;100.00;100278.22;5105458;29;20278;-78
2022/12/29 11:17:04;;;;;;;15.68;2.85;;;;;;;10.35;100.00;100275.91;5106881;29;20035;-78
2022/12/29 11:19:35;;;;;;;12.95;2.78;;;;;;;10.33;100.00;100272.59;5108491;29;20036;-79
2022/12/29 11:22:25;;;;;;;10.40;2.33;;;;;;;10.53;100.00;100270.75;5106206;29;20390;-78
2022/12/29 11:25:12;;;;;;;9.07;2.63;;;;;;;10.54;100.00;100281.09;5103458;29;20044;-78
2022/12/29 11:27:56;;;;;;;9.48;2.28;;;;;;;10.53;100.00;100284.69;5103052;29;20107;-78
2022/12/29 11:30:31;;;;;;;8.60;2.45;;;;;;;10.56;100.00;100292.22;5104268;29;20569;-78
2022/12/29 11:33:04;;;;;;;10.02;2.78;;;;;;;10.56;100.00;100296.66;5092244;29;20047;-79
2022/12/29 11:35:40;;;;;;;;;;;;;;;11.07;100.00;100304.00;5108875;29;20040;-79
2022/12/29 11:38:22;;;;;;;10.45;2.45;;;;;;;10.76;100.00;100297.38;5108483;29;19919;-78
2022/12/29 11:40:53;;;;;;;13.90;2.45;;;;;;;10.65;100.00;100314.97;5095108;29;20029;-79
2022/12/29 11:43:35;;;;;;;10.52;2.38;;;;;;;10.79;100.00;100303.16;5109138;29;20401;-78
2022/12/29 11:46:14;;;;;;;7.75;1.92;;;;;;;10.73;100.00;100303.75;5107239;29;20027;-78
2022/12/29 11:48:46;;;;;;;14.38;3.05;;;;;;;10.71;100.00;100305.69;5094848;29;20056;-79
2022/12/29 11:51:24;;;;;;;12.18;2.60;;;;;;;10.84;100.00;100315.88;5091837;29;20038;-78
2022/12/29 11:53:59;;;;;;;8.05;2.63;;;;;;;10.75;100.00;100308.84;5109687;29;20470;-78
2022/12/29 11:56:42;;;;;;;10.27;2.45;;;;;;;10.91;100.00;100309.91;5095428;29;20024;-79
2022/12/29 11:59:38;;;;;;;9.93;2.30;;;;;;;10.98;100.00;100327.63;5110869;29;20032;-79
2022/12/29 12:02:34;;;;;;;12.38;2.83;;;;;;;11.04;100.00;100314.78;5109108;29;20032;-78
2022/12/29 12:05:30;;;;;;;10.20;2.22;;;;;;;11.01;100.00;100319.50;5106351;29;20047;-78
2022/12/29 12:08:11;;;;;;;10.15;2.45;;;;;;;10.93;100.00;100312.34;5107252;29;20115;-78
2022/12/29 12:11:11;;;;;;;11.65;2.85;;;;;;;11.10;100.00;100314.22;5106564;29;20077;-78
2022/12/29 12:13:53;;;;;;;11.35;2.78;;;;;;;11.00;100.00;100318.66;5102559;29;20055;-78
2022/12/29 12:16:33;;;;;;;8.07;2.42;;;;;;;11.08;100.00;100315.31;5112840;29;20035;-78
2022/12/29 12:19:16;;;;;;;11.48;3.60;;;;;;;11.12;100.00;100319.28;5108791;29;20040;-78
2022/12/29 12:21:55;;;;;;;11.48;2.80;;;;;;;11.13;100.00;100328.81;5107127;29;20049;-78
2022/12/29 12:25:02;;;;;;;10.85;3.15;;;;;;;11.33;100.00;100321.66;5109771;29;20036;-78
2022/12/29 12:27:58;;;;;;;11.85;2.35;;;;;;;11.15;100.00;100324.25;5065286;29;20516;-78
2022/12/29 12:30:38;;;;;;;10.75;2.10;;;;;;;11.17;100.00;100324.91;5110036;29;20422;-79
2022/12/29 12:33:27;;;;;;;10.10;2.50;;;;;;;11.36;100.00;100318.72;5108421;29;20029;-78
2022/12/29 12:36:18;;;;;;;8.70;2.50;;;;;;;11.39;100.00;100321.06;5109868;29;20378;-78